createdAt,value
2024-04-15T00:01:32.354Z,11.50
2024-04-15T00:03:59.376Z,11.40
2024-04-15T00:06:26.287Z,11.30
2024-04-15T00:08:53.817Z,11.30
2024-04-15T00:11:20.710Z,11.30
2024-04-15T00:13:47.573Z,11.30
2024-04-15T00:16:14.482Z,11.30
2024-04-15T00:18:41.463Z,11.30
2024-04-15T00:21:12.093Z,11.20
2024-04-15T00:23:39.265Z,11.20
2024-04-15T00:26:06.270Z,11.10
2024-04-15T00:28:33.376Z,11.10
2024-04-15T00:31:00.715Z,11.00
2024-04-15T00:33:28.066Z,10.90
2024-04-15T00:35:55.254Z,10.90
2024-04-15T00:38:22.224Z,10.90
2024-04-15T00:40:49.189Z,10.90
2024-04-15T00:43:16.208Z,10.90
2024-04-15T00:45:43.701Z,10.80
2024-04-15T00:48:15.057Z,10.80
2024-04-15T00:50:44.596Z,10.80
2024-04-15T00:53:13.938Z,10.80
2024-04-15T00:55:44.679Z,10.90
2024-04-15T00:58:12.637Z,10.90
2024-04-15T01:00:40.150Z,10.90
2024-04-15T01:03:08.287Z,10.80
2024-04-15T01:05:35.249Z,10.80
2024-04-15T01:08:02.841Z,10.80
2024-04-15T01:10:29.941Z,10.80
2024-04-15T01:12:57.031Z,10.80
2024-04-15T01:15:23.955Z,10.80
2024-04-15T01:17:50.870Z,10.80
2024-04-15T01:20:17.815Z,10.70
2024-04-15T01:22:49.773Z,10.70
2024-04-15T01:25:16.897Z,10.70
2024-04-15T01:27:44.109Z,10.70
2024-04-15T01:30:11.494Z,10.70
2024-04-15T01:32:38.399Z,10.70
2024-04-15T01:35:05.596Z,10.70
2024-04-15T01:37:32.423Z,10.80
2024-04-15T01:39:59.335Z,10.80
2024-04-15T01:42:26.201Z,10.70
2024-04-15T01:44:53.041Z,10.80
2024-04-15T01:47:19.957Z,10.70
2024-04-15T01:49:46.830Z,10.70
2024-04-15T01:52:13.757Z,10.80
2024-04-15T01:54:40.747Z,10.90
2024-04-15T01:57:07.626Z,10.90
2024-04-15T01:59:34.554Z,10.90
2024-04-15T02:02:01.391Z,10.90
2024-04-15T02:04:28.468Z,10.90
2024-04-15T02:06:55.423Z,11.00
2024-04-15T02:09:23.160Z,11.00
2024-04-15T02:11:50.035Z,11.10
2024-04-15T02:14:16.882Z,11.20
2024-04-15T02:16:43.785Z,11.30
2024-04-15T02:19:10.774Z,11.50
2024-04-15T02:21:37.814Z,11.60
2024-04-15T02:24:04.822Z,11.60
2024-04-15T02:26:31.639Z,11.60
2024-04-15T02:28:58.494Z,11.70
2024-04-15T02:31:25.363Z,11.90
2024-04-15T02:33:52.576Z,12.00
2024-04-15T02:36:19.620Z,12.10
2024-04-15T02:38:46.613Z,12.20
2024-04-15T02:41:14.447Z,12.20
2024-04-15T02:43:41.361Z,12.10
2024-04-15T02:46:08.247Z,12.20
2024-04-15T02:48:35.127Z,12.20
2024-04-15T02:51:02.087Z,12.20
2024-04-15T02:53:29.605Z,12.10
2024-04-15T02:55:56.471Z,12.10
2024-04-15T02:58:23.406Z,12.10
2024-04-15T03:00:50.315Z,12.10
2024-04-15T03:03:17.239Z,12.10
2024-04-15T03:05:47.666Z,12.20
2024-04-15T03:08:14.560Z,12.10
2024-04-15T03:10:41.645Z,12.10
2024-04-15T03:13:08.605Z,12.00
2024-04-15T03:15:35.513Z,12.00
2024-04-15T03:18:04.382Z,12.00
2024-04-15T03:20:31.385Z,12.10
2024-04-15T03:22:58.247Z,12.20
2024-04-15T03:25:25.225Z,12.30
2024-04-15T03:27:52.186Z,12.40
2024-04-15T03:30:19.330Z,12.40
2024-04-15T03:32:46.296Z,12.50
2024-04-15T03:35:15.339Z,12.60
2024-04-15T03:37:43.457Z,12.60
2024-04-15T03:40:11.218Z,12.70
2024-04-15T03:42:38.124Z,12.70
2024-04-15T03:45:05.736Z,12.70
2024-04-15T03:47:32.884Z,12.70
2024-04-15T03:49:59.875Z,12.50
2024-04-15T03:52:26.807Z,12.40
2024-04-15T03:54:53.712Z,12.30
2024-04-15T03:57:20.625Z,12.20
2024-04-15T03:59:47.496Z,12.20
2024-04-15T04:02:14.436Z,12.10
2024-04-15T04:04:42.044Z,12.00
2024-04-15T04:07:09.159Z,12.00
2024-04-15T04:09:36.079Z,11.90
2024-04-15T04:12:03.017Z,11.90
2024-04-15T04:14:30.130Z,11.90
2024-04-15T04:16:57.077Z,11.90
2024-04-15T04:19:24.273Z,11.80
2024-04-15T04:21:51.249Z,11.80
2024-04-15T04:24:18.795Z,11.70
2024-04-15T04:26:45.643Z,11.70
2024-04-15T04:29:12.514Z,11.70
2024-04-15T04:31:39.622Z,11.70
2024-04-15T04:34:06.555Z,11.60
2024-04-15T04:36:33.505Z,11.60
2024-04-15T04:39:00.541Z,11.60
2024-04-15T04:41:27.459Z,11.60
2024-04-15T04:43:54.985Z,11.50
2024-04-15T04:46:21.957Z,11.60
2024-04-15T04:48:50.355Z,11.60
2024-04-15T04:51:17.481Z,11.50
2024-04-15T04:53:44.518Z,11.50
2024-04-15T04:56:15.998Z,11.50
2024-04-15T04:58:43.885Z,11.50
2024-04-15T05:01:16.018Z,11.50
2024-04-15T05:03:50.910Z,11.60
2024-04-15T05:06:19.591Z,11.60
2024-04-15T05:08:47.507Z,11.60
2024-04-15T05:11:14.750Z,11.60
2024-04-15T05:13:41.673Z,11.70
2024-04-15T05:16:10.427Z,11.80
2024-04-15T05:18:39.005Z,11.80
2024-04-15T05:21:11.152Z,11.80
2024-04-15T05:23:38.040Z,11.80
2024-04-15T05:26:04.959Z,11.90
2024-04-15T05:28:31.829Z,11.90
2024-04-15T05:30:58.838Z,12.00
2024-04-15T05:33:26.036Z,12.00
2024-04-15T05:35:53.082Z,11.90
2024-04-15T05:38:20.056Z,11.90
2024-04-15T05:40:47.014Z,12.00
2024-04-15T05:43:14.949Z,12.00
2024-04-15T05:45:42.766Z,12.00
2024-04-15T05:48:09.934Z,12.10
2024-04-15T05:50:37.021Z,12.20
2024-04-15T05:53:04.107Z,12.20
2024-04-15T05:55:31.030Z,12.20
2024-04-15T05:57:57.924Z,12.20
2024-04-15T06:00:24.800Z,12.20
2024-04-15T06:02:51.755Z,12.20
2024-04-15T06:05:20.905Z,12.20
2024-04-15T06:07:47.845Z,12.20
2024-04-15T06:10:14.836Z,12.30
2024-04-15T06:12:42.320Z,12.30
2024-04-15T06:15:09.282Z,12.40
2024-04-15T06:17:36.157Z,12.40
2024-04-15T06:20:03.243Z,12.50
2024-04-15T06:22:30.105Z,12.50
2024-04-15T06:24:56.980Z,12.50
2024-04-15T06:27:24.010Z,12.60
2024-04-15T06:29:50.865Z,12.70
2024-04-15T06:32:17.766Z,12.80
2024-04-15T06:34:44.638Z,12.80
2024-04-15T06:37:11.634Z,12.80
2024-04-15T06:39:38.891Z,12.80
2024-04-15T06:42:05.996Z,12.70
2024-04-15T06:44:34.894Z,12.70
2024-04-15T06:47:02.154Z,12.70
2024-04-15T06:49:29.085Z,12.70
2024-04-15T06:51:56.029Z,12.60
2024-04-15T06:54:23.044Z,12.60
2024-04-15T06:56:49.923Z,12.60
2024-04-15T06:59:16.860Z,12.60
2024-04-15T07:01:44.917Z,12.60
2024-04-15T07:04:11.877Z,12.50
2024-04-15T07:06:38.808Z,12.50
2024-04-15T07:09:05.675Z,12.30
2024-04-15T07:11:33.826Z,12.30
2024-04-15T07:14:00.833Z,12.20
2024-04-15T07:16:27.803Z,12.10
2024-04-15T07:18:54.755Z,12.10
2024-04-15T07:21:23.134Z,12.10
2024-04-15T07:23:50.347Z,12.10
2024-04-15T07:26:17.232Z,12.20
2024-04-15T07:28:44.093Z,12.20
2024-04-15T07:31:11.030Z,12.20
2024-04-15T07:33:37.988Z,12.10
2024-04-15T07:36:05.277Z,12.10
2024-04-15T07:38:32.160Z,12.10
2024-04-15T07:41:02.175Z,12.10
2024-04-15T07:43:30.675Z,11.90
2024-04-15T07:45:57.766Z,11.90
2024-04-15T07:48:24.698Z,11.80
2024-04-15T07:50:51.593Z,11.70
2024-04-15T07:53:18.436Z,11.70
2024-04-15T07:55:48.748Z,11.60
2024-04-15T07:58:15.756Z,11.40
2024-04-15T08:00:45.323Z,11.40
2024-04-15T08:03:12.415Z,11.30
2024-04-15T08:05:39.383Z,11.40
2024-04-15T08:08:07.560Z,11.50
2024-04-15T08:10:34.848Z,11.60
2024-04-15T08:13:01.773Z,11.60
2024-04-15T08:15:29.320Z,11.80
2024-04-15T08:17:56.373Z,12.20
2024-04-15T08:20:23.936Z,12.30
2024-04-15T08:22:50.859Z,12.30
2024-04-15T08:25:18.468Z,12.30
2024-04-15T08:27:45.384Z,12.10
2024-04-15T08:30:12.414Z,12.10
2024-04-15T08:32:40.355Z,12.10
2024-04-15T08:35:07.684Z,12.10
2024-04-15T08:37:34.613Z,12.10
2024-04-15T08:40:01.560Z,12.30
2024-04-15T08:42:40.333Z,12.40
2024-04-15T08:45:09.451Z,12.70
2024-04-15T08:47:36.930Z,12.70
2024-04-15T08:50:06.193Z,12.80
2024-04-15T08:52:33.220Z,12.60
2024-04-15T08:55:00.417Z,12.70
2024-04-15T08:57:29.326Z,12.80
2024-04-15T08:59:57.642Z,12.80
2024-04-15T09:02:24.875Z,12.90
2024-04-15T09:04:56.070Z,12.70
2024-04-15T09:07:25.449Z,12.70
2024-04-15T09:09:52.449Z,12.60
2024-04-15T09:12:19.497Z,12.60
2024-04-15T09:14:46.402Z,12.70
2024-04-15T09:17:16.499Z,12.60
2024-04-15T09:19:46.096Z,12.50
2024-04-15T09:22:13.069Z,12.60
2024-04-15T09:24:40.211Z,12.70
2024-04-15T09:27:08.147Z,12.60
2024-04-15T09:29:34.986Z,12.50
2024-04-15T09:32:01.920Z,12.70
2024-04-15T09:34:29.021Z,12.60
2024-04-15T09:36:58.217Z,12.80
2024-04-15T09:39:26.359Z,12.80
2024-04-15T09:41:54.188Z,12.80
2024-04-15T09:44:21.960Z,12.60
2024-04-15T09:46:50.324Z,12.50
2024-04-15T09:49:18.686Z,12.60
2024-04-15T09:51:49.097Z,12.90
2024-04-15T09:54:22.106Z,13.00
2024-04-15T09:56:49.700Z,13.40
2024-04-15T09:59:17.206Z,13.30
2024-04-15T10:01:44.908Z,13.20
2024-04-15T10:04:25.373Z,13.10
2024-04-15T10:06:59.386Z,13.80
2024-04-15T10:09:26.421Z,15.00
2024-04-15T10:11:53.846Z,14.90
2024-04-15T10:14:21.168Z,15.80
2024-04-15T10:16:49.014Z,15.90
2024-04-15T10:19:28.748Z,16.00
2024-04-15T10:21:58.695Z,16.10
2024-04-15T10:24:26.729Z,15.40
2024-04-15T10:26:54.606Z,15.70
2024-04-15T10:29:29.281Z,16.10
2024-04-15T10:31:59.390Z,16.10
2024-04-15T10:34:28.159Z,16.00
2024-04-15T10:36:57.277Z,15.80
2024-04-15T10:39:25.416Z,15.60
2024-04-15T10:41:52.697Z,15.50
2024-04-15T10:44:19.728Z,16.10
2024-04-15T10:46:47.972Z,16.00
2024-04-15T10:49:16.012Z,15.60
2024-04-15T10:51:44.153Z,15.80
2024-04-15T10:54:10.997Z,16.00
2024-04-15T10:56:38.020Z,15.70
2024-04-15T10:59:05.326Z,15.80
2024-04-15T11:01:32.354Z,15.70
2024-04-15T11:03:59.458Z,15.30
2024-04-15T11:06:30.113Z,15.20
2024-04-15T11:08:59.625Z,14.90
2024-04-15T11:11:27.141Z,15.00
2024-04-15T11:13:56.059Z,15.00
2024-04-15T11:16:23.018Z,15.10
2024-04-15T11:18:49.933Z,16.20
2024-04-15T11:21:18.053Z,16.00
2024-04-15T11:23:46.747Z,16.30
2024-04-15T11:26:16.815Z,16.90
2024-04-15T11:28:44.354Z,16.70
2024-04-15T11:31:11.470Z,16.80
2024-04-15T11:33:39.379Z,15.90
2024-04-15T11:36:06.850Z,16.00
2024-04-15T11:38:35.020Z,16.00
2024-04-15T11:41:02.678Z,16.10
2024-04-15T11:43:29.720Z,16.30
2024-04-15T11:45:57.753Z,16.50
2024-04-15T11:48:27.172Z,17.80
2024-04-15T11:50:55.523Z,18.30
2024-04-15T11:53:26.439Z,18.80
2024-04-15T11:55:55.133Z,19.50
2024-04-15T11:58:23.020Z,19.70
2024-04-15T12:00:50.160Z,18.90
2024-04-15T12:03:17.221Z,19.40
2024-04-15T12:05:44.530Z,19.20
2024-04-15T12:08:12.130Z,19.30
2024-04-15T12:10:40.758Z,18.50
2024-04-15T12:13:07.706Z,18.10
2024-04-15T12:15:34.994Z,17.50
2024-04-15T12:18:01.951Z,17.20
2024-04-15T12:20:29.104Z,16.90
2024-04-15T12:22:56.045Z,16.80
2024-04-15T12:25:22.997Z,16.60
2024-04-15T12:27:50.175Z,16.10
2024-04-15T12:30:18.319Z,15.80
2024-04-15T12:32:45.729Z,15.70
2024-04-15T12:35:12.820Z,15.50
2024-04-15T12:37:40.177Z,15.40
2024-04-15T12:40:09.187Z,15.30
2024-04-15T12:42:36.339Z,14.90
2024-04-15T12:45:04.415Z,14.80
2024-04-15T12:47:32.288Z,14.70
2024-04-15T12:49:59.443Z,14.60
2024-04-15T12:52:26.464Z,14.30
2024-04-15T12:54:54.311Z,14.30
2024-04-15T12:57:21.552Z,14.30
2024-04-15T12:59:48.535Z,14.50
2024-04-15T13:02:15.536Z,15.00
2024-04-15T13:04:42.762Z,15.50
2024-04-15T13:07:10.965Z,15.80
2024-04-15T13:09:38.090Z,16.40
2024-04-15T13:12:05.349Z,17.20
2024-04-15T13:14:32.231Z,17.20
2024-04-15T13:16:59.137Z,17.60
2024-04-15T13:19:26.081Z,17.30
2024-04-15T13:21:53.086Z,17.40
2024-04-15T13:24:19.972Z,17.20
2024-04-15T13:26:46.833Z,17.90
2024-04-15T13:29:13.833Z,18.10
2024-04-15T13:31:40.739Z,18.30
2024-04-15T13:34:11.300Z,17.90
2024-04-15T13:36:38.623Z,17.70
2024-04-15T13:39:05.562Z,17.60
2024-04-15T13:41:32.610Z,17.10
2024-04-15T13:43:59.506Z,16.80
2024-04-15T13:46:27.032Z,16.60
2024-04-15T13:48:53.997Z,16.50
2024-04-15T13:51:20.942Z,16.10
2024-04-15T13:53:47.841Z,15.80
2024-04-15T13:56:14.865Z,15.40
2024-04-15T13:58:41.969Z,14.80
2024-04-15T14:01:09.127Z,14.40
2024-04-15T14:03:36.089Z,14.20
2024-04-15T14:06:03.213Z,14.00
2024-04-15T14:08:30.110Z,14.00
2024-04-15T14:10:57.941Z,13.80
2024-04-15T14:13:25.370Z,13.70
2024-04-15T14:15:52.405Z,13.70
2024-04-15T14:18:19.363Z,13.70
2024-04-15T14:20:46.229Z,13.90
2024-04-15T14:23:13.177Z,14.10
2024-04-15T14:25:42.217Z,14.40
2024-04-15T14:28:09.863Z,14.90
2024-04-15T14:30:39.791Z,14.70
2024-04-15T14:33:06.861Z,15.00
2024-04-15T14:35:33.821Z,14.80
2024-04-15T14:38:00.697Z,14.60
2024-04-15T14:40:30.888Z,14.50
2024-04-15T14:42:58.552Z,15.00
2024-04-15T14:45:25.458Z,15.20
2024-04-15T14:47:52.486Z,15.50
2024-04-15T14:50:22.220Z,15.40
2024-04-15T14:52:49.956Z,15.40
2024-04-15T14:55:16.960Z,15.10
2024-04-15T14:57:44.704Z,15.00
2024-04-15T15:00:14.397Z,14.90
2024-04-15T15:02:41.327Z,14.80
2024-04-15T15:05:08.189Z,14.80
2024-04-15T15:07:35.644Z,14.80
2024-04-15T15:10:03.025Z,14.70
2024-04-15T15:12:29.927Z,14.90
2024-04-15T15:14:56.834Z,14.70
2024-04-15T15:17:23.792Z,14.70
2024-04-15T15:19:53.371Z,14.90
2024-04-15T15:22:20.695Z,15.00
2024-04-15T15:24:47.666Z,14.90
2024-04-15T15:27:14.686Z,15.00
2024-04-15T15:29:41.561Z,15.00
2024-04-15T15:32:08.574Z,15.00
2024-04-15T15:34:35.580Z,14.90
2024-04-15T15:37:02.606Z,15.10
2024-04-15T15:39:29.509Z,15.00
2024-04-15T15:41:56.421Z,15.10
2024-04-15T15:44:23.281Z,14.90
2024-04-15T15:46:50.146Z,14.70
2024-04-15T15:49:17.099Z,14.70
2024-04-15T15:51:44.066Z,14.70
2024-04-15T15:54:10.971Z,14.60
2024-04-15T15:56:39.157Z,14.50
2024-04-15T15:59:06.570Z,14.50
2024-04-15T16:01:34.997Z,14.50
2024-04-15T16:04:02.603Z,14.40
2024-04-15T16:06:29.690Z,14.30
2024-04-15T16:08:56.537Z,14.00
2024-04-15T16:11:31.560Z,13.80
2024-04-15T16:14:10.367Z,13.50
2024-04-15T16:16:37.676Z,13.40
2024-04-15T16:19:06.519Z,13.30
2024-04-15T16:21:33.566Z,13.30
2024-04-15T16:24:00.522Z,13.40
2024-04-15T16:26:27.488Z,13.30
2024-04-15T16:28:54.407Z,13.30
2024-04-15T16:31:21.339Z,13.40
2024-04-15T16:33:48.449Z,13.40
2024-04-15T16:36:15.813Z,13.40
2024-04-15T16:38:43.436Z,13.30
2024-04-15T16:41:10.297Z,13.10
2024-04-15T16:43:37.227Z,13.10
2024-04-15T16:46:04.253Z,13.10
2024-04-15T16:48:31.392Z,13.10
2024-04-15T16:50:58.280Z,13.10
2024-04-15T16:53:25.183Z,13.00
2024-04-15T16:55:52.931Z,13.00
2024-04-15T16:58:22.404Z,13.00
2024-04-15T17:00:50.726Z,13.00
2024-04-15T17:03:17.997Z,13.00
2024-04-15T17:05:45.999Z,12.90
2024-04-15T17:08:13.104Z,12.90
2024-04-15T17:10:40.037Z,12.90
2024-04-15T17:13:07.059Z,12.90
2024-04-15T17:15:34.194Z,12.80
2024-04-15T17:18:01.913Z,12.70
2024-04-15T17:20:29.235Z,12.70
2024-04-15T17:22:57.081Z,12.60
2024-04-15T17:25:24.118Z,12.50
2024-04-15T17:27:51.315Z,12.50
2024-04-15T17:30:19.391Z,12.40
2024-04-15T17:32:46.321Z,12.50
2024-04-15T17:35:13.619Z,12.50
2024-04-15T17:37:41.574Z,12.40
2024-04-15T17:40:10.071Z,12.30
2024-04-15T17:42:37.056Z,12.30
2024-04-15T17:45:04.222Z,12.30
2024-04-15T17:47:31.164Z,12.10
2024-04-15T17:49:58.612Z,12.10
2024-04-15T17:52:25.686Z,12.00
2024-04-15T17:54:52.728Z,11.90
2024-04-15T17:57:20.250Z,11.90
2024-04-15T17:59:47.172Z,11.80
2024-04-15T18:02:14.090Z,11.70
2024-04-15T18:04:41.164Z,11.60
2024-04-15T18:07:11.214Z,11.50
2024-04-15T18:09:39.443Z,11.30
2024-04-15T18:12:08.465Z,11.10
2024-04-15T18:14:35.920Z,10.90
2024-04-15T18:17:03.341Z,10.80
2024-04-15T18:19:30.485Z,10.70
2024-04-15T18:21:57.429Z,10.60
2024-04-15T18:24:28.521Z,10.60
2024-04-15T18:26:56.151Z,10.50
2024-04-15T18:29:23.094Z,10.50
2024-04-15T18:31:50.111Z,10.40
2024-04-15T18:34:17.211Z,10.40
2024-04-15T18:36:45.624Z,10.50
2024-04-15T18:39:12.954Z,10.40
2024-04-15T18:41:39.839Z,10.40
2024-04-15T18:44:06.696Z,10.30
2024-04-15T18:46:34.873Z,10.40
2024-04-15T18:49:01.883Z,10.30
2024-04-15T18:51:28.787Z,10.20
2024-04-15T18:53:57.219Z,10.10
2024-04-15T18:56:24.888Z,10.10
2024-04-15T18:58:52.237Z,10.00
2024-04-15T19:01:19.301Z,10.00
2024-04-15T19:03:46.416Z,10.10
2024-04-15T19:06:13.599Z,10.10
2024-04-15T19:08:40.503Z,10.10
2024-04-15T19:11:07.502Z,10.20
2024-04-15T19:13:34.453Z,10.20
2024-04-15T19:16:01.500Z,10.30
2024-04-15T19:18:28.552Z,10.40
2024-04-15T19:20:55.493Z,10.40
2024-04-15T19:23:22.468Z,10.40
2024-04-15T19:25:49.415Z,10.40
2024-04-15T19:28:16.310Z,10.50
2024-04-15T19:30:43.202Z,10.50
2024-04-15T19:33:10.203Z,10.50
2024-04-15T19:35:37.728Z,10.50
2024-04-15T19:38:04.866Z,10.60
2024-04-15T19:40:31.822Z,10.70
2024-04-15T19:42:59.718Z,10.80
2024-04-15T19:45:26.678Z,10.80
2024-04-15T19:47:54.358Z,10.80
2024-04-15T19:50:21.438Z,10.80
2024-04-15T19:52:48.310Z,10.70
2024-04-15T19:55:17.033Z,10.10
2024-04-15T19:57:49.005Z,9.50
2024-04-15T20:00:18.835Z,9.20
2024-04-15T20:02:45.884Z,8.80
2024-04-15T20:05:12.894Z,8.40
2024-04-15T20:07:41.771Z,7.90
2024-04-15T20:10:08.955Z,7.60
2024-04-15T20:12:37.072Z,7.40
2024-04-15T20:15:04.686Z,7.10
2024-04-15T20:17:43.230Z,7.20
2024-04-15T20:20:15.711Z,7.00
2024-04-15T20:22:43.212Z,6.80
2024-04-15T20:25:10.203Z,6.70
2024-04-15T20:27:38.259Z,6.70
2024-04-15T20:30:05.745Z,6.40
2024-04-15T20:32:32.790Z,6.30
2024-04-15T20:35:01.405Z,6.20
2024-04-15T20:37:28.913Z,6.00
2024-04-15T20:39:56.272Z,6.00
2024-04-15T20:42:23.408Z,5.80
2024-04-15T20:44:52.335Z,5.60
2024-04-15T20:47:20.541Z,5.40
2024-04-15T20:49:47.469Z,5.30
2024-04-15T20:52:17.305Z,5.20
2024-04-15T20:54:44.409Z,5.20
2024-04-15T20:57:11.348Z,5.10
2024-04-15T20:59:38.259Z,5.00
2024-04-15T21:02:05.201Z,4.90
2024-04-15T21:04:32.285Z,4.70
2024-04-15T21:06:59.260Z,4.60
2024-04-15T21:09:26.154Z,4.50
2024-04-15T21:11:52.998Z,4.40
2024-04-15T21:14:20.491Z,4.40
2024-04-15T21:16:47.469Z,4.40
2024-04-15T21:19:14.442Z,4.40
2024-04-15T21:21:41.291Z,4.40
2024-04-15T21:24:08.337Z,4.40
2024-04-15T21:26:35.320Z,4.30
2024-04-15T21:29:02.185Z,4.10
2024-04-15T21:31:29.178Z,4.10
2024-04-15T21:33:56.186Z,4.00
2024-04-15T21:36:23.089Z,3.90
2024-04-15T21:38:51.499Z,3.80
2024-04-15T21:41:18.711Z,3.70
2024-04-15T21:43:45.694Z,3.80
2024-04-15T21:46:12.704Z,3.70
2024-04-15T21:48:39.643Z,3.50
2024-04-15T21:51:06.670Z,3.50
2024-04-15T21:53:33.570Z,3.40
2024-04-15T21:56:00.488Z,3.40
2024-04-15T21:58:27.524Z,3.30
2024-04-15T22:00:54.470Z,3.30
2024-04-15T22:03:21.383Z,3.20
2024-04-15T22:05:49.392Z,3.10
2024-04-15T22:08:16.342Z,3.10
2024-04-15T22:10:43.348Z,3.00
2024-04-15T22:13:11.281Z,3.00
2024-04-15T22:15:38.355Z,3.10
2024-04-15T22:18:05.682Z,3.10
2024-04-15T22:20:32.602Z,3.20
2024-04-15T22:23:00.595Z,3.10
2024-04-15T22:25:27.594Z,3.20
2024-04-15T22:27:54.493Z,3.10
2024-04-15T22:30:21.367Z,3.00
2024-04-15T22:32:48.297Z,2.90
2024-04-15T22:35:15.231Z,3.00
2024-04-15T22:37:42.120Z,3.10
2024-04-15T22:40:09.425Z,3.00
2024-04-15T22:42:36.354Z,3.00
2024-04-15T22:45:03.966Z,2.90
2024-04-15T22:47:30.906Z,3.10
2024-04-15T22:49:57.857Z,3.10
2024-04-15T22:52:27.025Z,2.90
2024-04-15T22:54:53.977Z,3.00
2024-04-15T22:57:20.851Z,3.00
2024-04-15T22:59:47.751Z,3.00
2024-04-15T23:02:14.755Z,3.00
2024-04-15T23:04:41.802Z,2.90
2024-04-15T23:07:08.713Z,3.00
2024-04-15T23:09:35.612Z,2.90
2024-04-15T23:12:02.482Z,2.90
2024-04-15T23:14:29.623Z,2.90
2024-04-15T23:16:56.581Z,2.90
2024-04-15T23:19:23.492Z,2.90
2024-04-15T23:21:50.347Z,2.90
2024-04-15T23:24:17.390Z,2.80
2024-04-15T23:26:44.253Z,2.80
2024-04-15T23:29:11.100Z,2.90
2024-04-15T23:31:37.967Z,2.80
2024-04-15T23:34:04.952Z,3.00
2024-04-15T23:36:31.822Z,2.90
2024-04-15T23:39:00.257Z,3.00
2024-04-15T23:41:27.176Z,3.10
2024-04-15T23:43:54.034Z,3.00
2024-04-15T23:46:20.926Z,3.00
2024-04-15T23:48:47.790Z,3.00
2024-04-15T23:51:14.624Z,3.00
2024-04-15T23:53:41.500Z,3.00
2024-04-15T23:56:08.338Z,3.00
2024-04-15T23:58:37.170Z,3.10
